<?xml version="1.0" encoding="UTF-8"?>
<gpx xmlns="http://www.topografix.com/GPX/1/1" xmlns:xsi="http://www.w3.org/2001/XMLSchema-instance" version="1.1" xsi:schemaLocation="http://www.topografix.com/GPX/1/1 http://www.topografix.com/GPX/1/1/gpx.xsd">
  <metadata>
    <name>Chelanathon 2026</name>
  </metadata>
  <trk>
    <name>Chelanathon 2026</name>
    <trkseg>
      <trkpt lat="47.879481" lon="-120.12746">
        <ele>340.009645</ele>
        <time>2026-09-19T08:32:11.000Z</time>
      </trkpt>
      <trkpt lat="47.880202" lon="-120.127662">
        <ele>340.009644</ele>
        <time>2026-09-19T08:32:19.000Z</time>
      </trkpt>
      <trkpt lat="47.880392" lon="-120.127809">
        <ele>340.03362</ele>
        <time>2026-09-19T08:32:21.000Z</time>
      </trkpt>
      <trkpt lat="47.880719" lon="-120.12821">
        <ele>340.294526</ele>
        <time>2026-09-19T08:32:26.000Z</time>
      </trkpt>
      <trkpt lat="47.880792" lon="-120.128368">
        <ele>340.377037</ele>
        <time>2026-09-19T08:32:27.000Z</time>
      </trkpt>
      <trkpt lat="47.880812" lon="-120.128624">
        <ele>340.477548</ele>
        <time>2026-09-19T08:32:29.000Z</time>
      </trkpt>
      <trkpt lat="47.88073" lon="-120.129178">
        <ele>340.715428</ele>
        <time>2026-09-19T08:32:33.000Z</time>
      </trkpt>
      <trkpt lat="47.880766" lon="-120.129363">
        <ele>340.793354</ele>
        <time>2026-09-19T08:32:34.000Z</time>
      </trkpt>
      <trkpt lat="47.880854" lon="-120.129568">
        <ele>340.890931</ele>
        <time>2026-09-19T08:32:36.000Z</time>
      </trkpt>
      <trkpt lat="47.881139" lon="-120.129586">
        <ele>341.062509</ele>
        <time>2026-09-19T08:32:39.000Z</time>
      </trkpt>
      <trkpt lat="47.881163" lon="-120.127844">
        <ele>341.430431</ele>
        <time>2026-09-19T08:32:52.000Z</time>
      </trkpt>
      <trkpt lat="47.88118" lon="-120.126559">
        <ele>341.703788</ele>
        <time>2026-09-19T08:33:02.000Z</time>
      </trkpt>
      <trkpt lat="47.881134" lon="-120.126155">
        <ele>341.816855</ele>
        <time>2026-09-19T08:33:05.000Z</time>
      </trkpt>
      <trkpt lat="47.881076" lon="-120.125922">
        <ele>341.890109</ele>
        <time>2026-09-19T08:33:07.000Z</time>
      </trkpt>
      <trkpt lat="47.880375" lon="-120.123554">
        <ele>342.706986</ele>
        <time>2026-09-19T08:33:26.000Z</time>
      </trkpt>
      <trkpt lat="47.880162" lon="-120.122826">
        <ele>343.017273</ele>
        <time>2026-09-19T08:33:32.000Z</time>
      </trkpt>
      <trkpt lat="47.880075" lon="-120.12257">
        <ele>343.131659</ele>
        <time>2026-09-19T08:33:34.000Z</time>
      </trkpt>
      <trkpt lat="47.879915" lon="-120.122265">
        <ele>343.277606</ele>
        <time>2026-09-19T08:33:37.000Z</time>
      </trkpt>
      <trkpt lat="47.87921" lon="-120.121081">
        <ele>343.57373</ele>
        <time>2026-09-19T08:33:49.000Z</time>
      </trkpt>
      <trkpt lat="47.879109" lon="-120.120888">
        <ele>343.601477</ele>
        <time>2026-09-19T08:33:51.000Z</time>
      </trkpt>
      <trkpt lat="47.878698" lon="-120.120157">
        <ele>343.708014</ele>
        <time>2026-09-19T08:33:58.000Z</time>
      </trkpt>
      <trkpt lat="47.878251" lon="-120.119323">
        <ele>343.475033</ele>
        <time>2026-09-19T08:34:06.000Z</time>
      </trkpt>
      <trkpt lat="47.877578" lon="-120.117813">
        <ele>342.827079</ele>
        <time>2026-09-19T08:34:20.000Z</time>
      </trkpt>
      <trkpt lat="47.87707" lon="-120.11662">
        <ele>342.804881</ele>
        <time>2026-09-19T08:34:31.000Z</time>
      </trkpt>
      <trkpt lat="47.876768" lon="-120.115878">
        <ele>342.822196</ele>
        <time>2026-09-19T08:34:37.000Z</time>
      </trkpt>
      <trkpt lat="47.876224" lon="-120.11459">
        <ele>344.004801</ele>
        <time>2026-09-19T08:34:48.000Z</time>
      </trkpt>
      <trkpt lat="47.875939" lon="-120.113921">
        <ele>344.946252</ele>
        <time>2026-09-19T08:34:54.000Z</time>
      </trkpt>
      <trkpt lat="47.875688" lon="-120.113325">
        <ele>345.787474</ele>
        <time>2026-09-19T08:34:59.000Z</time>
      </trkpt>
      <trkpt lat="47.87555" lon="-120.112997">
        <ele>346.277197</ele>
        <time>2026-09-19T08:35:02.000Z</time>
      </trkpt>
      <trkpt lat="47.87505" lon="-120.11184">
        <ele>348.163457</ele>
        <time>2026-09-19T08:35:12.000Z</time>
      </trkpt>
      <trkpt lat="47.874485" lon="-120.110538">
        <ele>350.138214</ele>
        <time>2026-09-19T08:35:24.000Z</time>
      </trkpt>
      <trkpt lat="47.874363" lon="-120.110214">
        <ele>350.512162</ele>
        <time>2026-09-19T08:35:27.000Z</time>
      </trkpt>
      <trkpt lat="47.87426" lon="-120.10987">
        <ele>350.894411</ele>
        <time>2026-09-19T08:35:30.000Z</time>
      </trkpt>
      <trkpt lat="47.876303" lon="-120.11034">
        <ele>354.185766</ele>
        <time>2026-09-19T08:35:53.000Z</time>
      </trkpt>
      <trkpt lat="47.877091" lon="-120.111153">
        <ele>355.799467</ele>
        <time>2026-09-19T08:36:04.000Z</time>
      </trkpt>
      <trkpt lat="47.880989" lon="-120.114399">
        <ele>362.731061</ele>
        <time>2026-09-19T08:36:54.000Z</time>
      </trkpt>
      <trkpt lat="47.881082" lon="-120.114483">
        <ele>362.851628</ele>
        <time>2026-09-19T08:36:55.000Z</time>
      </trkpt>
      <trkpt lat="47.881594" lon="-120.115245">
        <ele>363.558599</ele>
        <time>2026-09-19T08:37:03.000Z</time>
      </trkpt>
      <trkpt lat="47.881752" lon="-120.115558">
        <ele>363.624403</ele>
        <time>2026-09-19T08:37:06.000Z</time>
      </trkpt>
      <trkpt lat="47.881935" lon="-120.11625">
        <ele>363.755847</ele>
        <time>2026-09-19T08:37:12.000Z</time>
      </trkpt>
      <trkpt lat="47.882152" lon="-120.116895">
        <ele>363.876227</ele>
        <time>2026-09-19T08:37:17.000Z</time>
      </trkpt>
      <trkpt lat="47.882272" lon="-120.117749">
        <ele>364.2824</ele>
        <time>2026-09-19T08:37:24.000Z</time>
      </trkpt>
      <trkpt lat="47.882357" lon="-120.117855">
        <ele>364.450642</ele>
        <time>2026-09-19T08:37:25.000Z</time>
      </trkpt>
      <trkpt lat="47.882472" lon="-120.117884">
        <ele>364.654404</ele>
        <time>2026-09-19T08:37:26.000Z</time>
      </trkpt>
      <trkpt lat="47.882685" lon="-120.117768">
        <ele>365.026974</ele>
        <time>2026-09-19T08:37:29.000Z</time>
      </trkpt>
      <trkpt lat="47.882951" lon="-120.117568">
        <ele>365.553886</ele>
        <time>2026-09-19T08:37:32.000Z</time>
      </trkpt>
      <trkpt lat="47.883066" lon="-120.117526">
        <ele>365.759232</ele>
        <time>2026-09-19T08:37:33.000Z</time>
      </trkpt>
      <trkpt lat="47.883203" lon="-120.117491">
        <ele>365.977172</ele>
        <time>2026-09-19T08:37:35.000Z</time>
      </trkpt>
      <trkpt lat="47.88331" lon="-120.117514">
        <ele>366.170711</ele>
        <time>2026-09-19T08:37:36.000Z</time>
      </trkpt>
      <trkpt lat="47.883383" lon="-120.117568">
        <ele>366.298477</ele>
        <time>2026-09-19T08:37:37.000Z</time>
      </trkpt>
      <trkpt lat="47.88343" lon="-120.117679">
        <ele>366.45723</ele>
        <time>2026-09-19T08:37:38.000Z</time>
      </trkpt>
      <trkpt lat="47.883483" lon="-120.117969">
        <ele>366.795836</ele>
        <time>2026-09-19T08:37:40.000Z</time>
      </trkpt>
      <trkpt lat="47.883517" lon="-120.118277">
        <ele>367.068097</ele>
        <time>2026-09-19T08:37:42.000Z</time>
      </trkpt>
      <trkpt lat="47.88357" lon="-120.118601">
        <ele>367.1803</ele>
        <time>2026-09-19T08:37:44.000Z</time>
      </trkpt>
      <trkpt lat="47.883861" lon="-120.11913">
        <ele>367.409495</ele>
        <time>2026-09-19T08:37:49.000Z</time>
      </trkpt>
      <trkpt lat="47.884078" lon="-120.119664">
        <ele>367.62148</ele>
        <time>2026-09-19T08:37:54.000Z</time>
      </trkpt>
      <trkpt lat="47.8844" lon="-120.120123">
        <ele>367.842347</ele>
        <time>2026-09-19T08:37:59.000Z</time>
      </trkpt>
      <trkpt lat="47.88473" lon="-120.120602">
        <ele>367.876384</ele>
        <time>2026-09-19T08:38:04.000Z</time>
      </trkpt>
      <trkpt lat="47.88492" lon="-120.120877">
        <ele>367.816696</ele>
        <time>2026-09-19T08:38:07.000Z</time>
      </trkpt>
      <trkpt lat="47.884958" lon="-120.121001">
        <ele>367.794184</ele>
        <time>2026-09-19T08:38:08.000Z</time>
      </trkpt>
      <trkpt lat="47.885088" lon="-120.121715">
        <ele>367.68097</ele>
        <time>2026-09-19T08:38:14.000Z</time>
      </trkpt>
      <trkpt lat="47.885079" lon="-120.121924">
        <ele>367.649394</ele>
        <time>2026-09-19T08:38:16.000Z</time>
      </trkpt>
      <trkpt lat="47.88496" lon="-120.122347">
        <ele>367.577837</ele>
        <time>2026-09-19T08:38:19.000Z</time>
      </trkpt>
      <trkpt lat="47.884861" lon="-120.122823">
        <ele>367.519121</ele>
        <time>2026-09-19T08:38:23.000Z</time>
      </trkpt>
      <trkpt lat="47.884841" lon="-120.123312">
        <ele>367.495926</ele>
        <time>2026-09-19T08:38:27.000Z</time>
      </trkpt>
      <trkpt lat="47.884877" lon="-120.123786">
        <ele>367.472691</ele>
        <time>2026-09-19T08:38:31.000Z</time>
      </trkpt>
      <trkpt lat="47.884953" lon="-120.124656">
        <ele>367.430346</ele>
        <time>2026-09-19T08:38:38.000Z</time>
      </trkpt>
      <trkpt lat="47.885036" lon="-120.125256">
        <ele>367.40057</ele>
        <time>2026-09-19T08:38:43.000Z</time>
      </trkpt>
      <trkpt lat="47.885239" lon="-120.125953">
        <ele>367.24207</ele>
        <time>2026-09-19T08:38:49.000Z</time>
      </trkpt>
      <trkpt lat="47.885452" lon="-120.126525">
        <ele>367.093894</ele>
        <time>2026-09-19T08:38:54.000Z</time>
      </trkpt>
      <trkpt lat="47.88558" lon="-120.126782">
        <ele>367.022159</ele>
        <time>2026-09-19T08:38:56.000Z</time>
      </trkpt>
      <trkpt lat="47.885781" lon="-120.127123">
        <ele>366.920802</ele>
        <time>2026-09-19T08:38:59.000Z</time>
      </trkpt>
      <trkpt lat="47.885937" lon="-120.127318">
        <ele>366.853095</ele>
        <time>2026-09-19T08:39:01.000Z</time>
      </trkpt>
      <trkpt lat="47.886059" lon="-120.127442">
        <ele>366.799792</ele>
        <time>2026-09-19T08:39:03.000Z</time>
      </trkpt>
      <trkpt lat="47.886321" lon="-120.127608">
        <ele>366.791099</ele>
        <time>2026-09-19T08:39:06.000Z</time>
      </trkpt>
      <trkpt lat="47.886754" lon="-120.127815">
        <ele>366.787315</ele>
        <time>2026-09-19T08:39:11.000Z</time>
      </trkpt>
      <trkpt lat="47.886871" lon="-120.12791">
        <ele>366.786187</ele>
        <time>2026-09-19T08:39:12.000Z</time>
      </trkpt>
      <trkpt lat="47.886975" lon="-120.128031">
        <ele>366.785087</ele>
        <time>2026-09-19T08:39:13.000Z</time>
      </trkpt>
      <trkpt lat="47.887074" lon="-120.128224">
        <ele>366.783671</ele>
        <time>2026-09-19T08:39:15.000Z</time>
      </trkpt>
      <trkpt lat="47.887285" lon="-120.128934">
        <ele>366.779342</ele>
        <time>2026-09-19T08:39:21.000Z</time>
      </trkpt>
      <trkpt lat="47.887405" lon="-120.129173">
        <ele>366.846714</ele>
        <time>2026-09-19T08:39:23.000Z</time>
      </trkpt>
      <trkpt lat="47.887462" lon="-120.129455">
        <ele>367.02855</ele>
        <time>2026-09-19T08:39:25.000Z</time>
      </trkpt>
      <trkpt lat="47.887459" lon="-120.129677">
        <ele>367.175398</ele>
        <time>2026-09-19T08:39:27.000Z</time>
      </trkpt>
      <trkpt lat="47.888058" lon="-120.129703">
        <ele>367.774484</ele>
        <time>2026-09-19T08:39:34.000Z</time>
      </trkpt>
      <trkpt lat="47.888187" lon="-120.129739">
        <ele>367.90359</ele>
        <time>2026-09-19T08:39:35.000Z</time>
      </trkpt>
      <trkpt lat="47.888386" lon="-120.129841">
        <ele>368.11549</ele>
        <time>2026-09-19T08:39:37.000Z</time>
      </trkpt>
      <trkpt lat="47.888639" lon="-120.13012">
        <ele>368.418755</ele>
        <time>2026-09-19T08:39:40.000Z</time>
      </trkpt>
      <trkpt lat="47.888816" lon="-120.130434">
        <ele>368.606857</ele>
        <time>2026-09-19T08:39:43.000Z</time>
      </trkpt>
      <trkpt lat="47.888967" lon="-120.13099">
        <ele>368.758205</ele>
        <time>2026-09-19T08:39:47.000Z</time>
      </trkpt>
      <trkpt lat="47.889057" lon="-120.131577">
        <ele>368.913456</ele>
        <time>2026-09-19T08:39:51.000Z</time>
      </trkpt>
      <trkpt lat="47.889057" lon="-120.131901">
        <ele>368.999128</ele>
        <time>2026-09-19T08:39:53.000Z</time>
      </trkpt>
      <trkpt lat="47.889113" lon="-120.132337">
        <ele>369.112506</ele>
        <time>2026-09-19T08:39:56.000Z</time>
      </trkpt>
      <trkpt lat="47.889156" lon="-120.132575">
        <ele>369.174205</ele>
        <time>2026-09-19T08:39:58.000Z</time>
      </trkpt>
      <trkpt lat="47.88921" lon="-120.132712">
        <ele>369.215953</ele>
        <time>2026-09-19T08:39:59.000Z</time>
      </trkpt>
      <trkpt lat="47.889341" lon="-120.132984">
        <ele>369.386021</ele>
        <time>2026-09-19T08:40:01.000Z</time>
      </trkpt>
      <trkpt lat="47.889585" lon="-120.133227">
        <ele>369.680463</ele>
        <time>2026-09-19T08:40:04.000Z</time>
      </trkpt>
      <trkpt lat="47.890458" lon="-120.133797">
        <ele>370.614965</ele>
        <time>2026-09-19T08:40:15.000Z</time>
      </trkpt>
      <trkpt lat="47.890894" lon="-120.134009">
        <ele>371.02658</ele>
        <time>2026-09-19T08:40:20.000Z</time>
      </trkpt>
      <trkpt lat="47.893253" lon="-120.135014">
        <ele>370.471362</ele>
        <time>2026-09-19T08:40:47.000Z</time>
      </trkpt>
      <trkpt lat="47.893362" lon="-120.135055">
        <ele>370.310963</ele>
        <time>2026-09-19T08:40:48.000Z</time>
      </trkpt>
      <trkpt lat="47.893626" lon="-120.135036">
        <ele>369.956873</ele>
        <time>2026-09-19T08:40:51.000Z</time>
      </trkpt>
      <trkpt lat="47.894574" lon="-120.134812">
        <ele>368.750485</ele>
        <time>2026-09-19T08:41:02.000Z</time>
      </trkpt>
      <trkpt lat="47.894789" lon="-120.134859">
        <ele>368.496419</ele>
        <time>2026-09-19T08:41:04.000Z</time>
      </trkpt>
      <trkpt lat="47.894964" lon="-120.135034">
        <ele>368.263515</ele>
        <time>2026-09-19T08:41:06.000Z</time>
      </trkpt>
      <trkpt lat="47.895613" lon="-120.135986">
        <ele>367.246588</ele>
        <time>2026-09-19T08:41:16.000Z</time>
      </trkpt>
      <trkpt lat="47.896176" lon="-120.136778">
        <ele>367.820425</ele>
        <time>2026-09-19T08:41:25.000Z</time>
      </trkpt>
      <trkpt lat="47.898828" lon="-120.140725">
        <ele>373.038154</ele>
        <time>2026-09-19T08:42:07.000Z</time>
      </trkpt>
      <trkpt lat="47.897291" lon="-120.143494">
        <ele>372.077423</ele>
        <time>2026-09-19T08:42:34.000Z</time>
      </trkpt>
      <trkpt lat="47.896285" lon="-120.14531">
        <ele>373.191696</ele>
        <time>2026-09-19T08:42:52.000Z</time>
      </trkpt>
      <trkpt lat="47.896228" lon="-120.145556">
        <ele>373.426597</ele>
        <time>2026-09-19T08:42:54.000Z</time>
      </trkpt>
      <trkpt lat="47.895871" lon="-120.147728">
        <ele>377.659565</ele>
        <time>2026-09-19T08:43:11.000Z</time>
      </trkpt>
      <trkpt lat="47.895851" lon="-120.148201">
        <ele>378.832032</ele>
        <time>2026-09-19T08:43:15.000Z</time>
      </trkpt>
      <trkpt lat="47.895863" lon="-120.1486">
        <ele>379.77741</ele>
        <time>2026-09-19T08:43:18.000Z</time>
      </trkpt>
      <trkpt lat="47.895898" lon="-120.148919">
        <ele>380.547323</ele>
        <time>2026-09-19T08:43:20.000Z</time>
      </trkpt>
      <trkpt lat="47.895962" lon="-120.14916">
        <ele>381.102443</ele>
        <time>2026-09-19T08:43:22.000Z</time>
      </trkpt>
      <trkpt lat="47.896145" lon="-120.149536">
        <ele>382.080769</ele>
        <time>2026-09-19T08:43:25.000Z</time>
      </trkpt>
      <trkpt lat="47.897967" lon="-120.153804">
        <ele>389.575534</ele>
        <time>2026-09-19T08:44:03.000Z</time>
      </trkpt>
      <trkpt lat="47.898057" lon="-120.153915">
        <ele>389.227451</ele>
        <time>2026-09-19T08:44:04.000Z</time>
      </trkpt>
      <trkpt lat="47.898157" lon="-120.153984">
        <ele>388.8357</ele>
        <time>2026-09-19T08:44:05.000Z</time>
      </trkpt>
      <trkpt lat="47.899049" lon="-120.154216">
        <ele>386.07748</ele>
        <time>2026-09-19T08:44:15.000Z</time>
      </trkpt>
      <trkpt lat="47.89921" lon="-120.154276">
        <ele>385.605837</ele>
        <time>2026-09-19T08:44:17.000Z</time>
      </trkpt>
      <trkpt lat="47.899339" lon="-120.154384">
        <ele>385.166862</ele>
        <time>2026-09-19T08:44:19.000Z</time>
      </trkpt>
      <trkpt lat="47.89961" lon="-120.154673">
        <ele>383.744868</ele>
        <time>2026-09-19T08:44:23.000Z</time>
      </trkpt>
      <trkpt lat="47.899979" lon="-120.155227">
        <ele>381.465229</ele>
        <time>2026-09-19T08:44:29.000Z</time>
      </trkpt>
      <trkpt lat="47.900196" lon="-120.155643">
        <ele>379.899563</ele>
        <time>2026-09-19T08:44:33.000Z</time>
      </trkpt>
      <trkpt lat="47.901747" lon="-120.158854">
        <ele>372.465446</ele>
        <time>2026-09-19T08:45:03.000Z</time>
      </trkpt>
      <trkpt lat="47.902885" lon="-120.161103">
        <ele>371.316722</ele>
        <time>2026-09-19T08:45:24.000Z</time>
      </trkpt>
      <trkpt lat="47.903943" lon="-120.162764">
        <ele>371.150925</ele>
        <time>2026-09-19T08:45:41.000Z</time>
      </trkpt>
      <trkpt lat="47.904558" lon="-120.164191">
        <ele>369.947423</ele>
        <time>2026-09-19T08:45:54.000Z</time>
      </trkpt>
      <trkpt lat="47.904875" lon="-120.164786">
        <ele>369.402933</ele>
        <time>2026-09-19T08:46:00.000Z</time>
      </trkpt>
      <trkpt lat="47.905108" lon="-120.165079">
        <ele>369.38985</ele>
        <time>2026-09-19T08:46:03.000Z</time>
      </trkpt>
      <trkpt lat="47.905393" lon="-120.1654">
        <ele>369.654725</ele>
        <time>2026-09-19T08:46:07.000Z</time>
      </trkpt>
      <trkpt lat="47.905969" lon="-120.166776">
        <ele>370.443985</ele>
        <time>2026-09-19T08:46:19.000Z</time>
      </trkpt>
      <trkpt lat="47.906256" lon="-120.167723">
        <ele>370.022228</ele>
        <time>2026-09-19T08:46:27.000Z</time>
      </trkpt>
      <trkpt lat="47.906745" lon="-120.168815">
        <ele>369.082183</ele>
        <time>2026-09-19T08:46:37.000Z</time>
      </trkpt>
      <trkpt lat="47.907339" lon="-120.17018">
        <ele>366.060267</ele>
        <time>2026-09-19T08:46:49.000Z</time>
      </trkpt>
      <trkpt lat="47.908395" lon="-120.172547">
        <ele>360.028458</ele>
        <time>2026-09-19T08:47:10.000Z</time>
      </trkpt>
      <trkpt lat="47.908863" lon="-120.173553">
        <ele>358.140972</ele>
        <time>2026-09-19T08:47:19.000Z</time>
      </trkpt>
      <trkpt lat="47.909847" lon="-120.175489">
        <ele>358.631674</ele>
        <time>2026-09-19T08:47:37.000Z</time>
      </trkpt>
      <trkpt lat="47.910196" lon="-120.175986">
        <ele>358.889066</ele>
        <time>2026-09-19T08:47:42.000Z</time>
      </trkpt>
      <trkpt lat="47.911009" lon="-120.176941">
        <ele>359.121368</ele>
        <time>2026-09-19T08:47:54.000Z</time>
      </trkpt>
      <trkpt lat="47.911831" lon="-120.177639">
        <ele>359.215574</ele>
        <time>2026-09-19T08:48:05.000Z</time>
      </trkpt>
      <trkpt lat="47.912475" lon="-120.178087">
        <ele>359.110315</ele>
        <time>2026-09-19T08:48:13.000Z</time>
      </trkpt>
      <trkpt lat="47.914965" lon="-120.18032">
        <ele>358.662749</ele>
        <time>2026-09-19T08:48:45.000Z</time>
      </trkpt>
      <trkpt lat="47.915255" lon="-120.180594">
        <ele>358.59111</ele>
        <time>2026-09-19T08:48:49.000Z</time>
      </trkpt>
      <trkpt lat="47.915588" lon="-120.181067">
        <ele>358.494202</ele>
        <time>2026-09-19T08:48:54.000Z</time>
      </trkpt>
      <trkpt lat="47.916582" lon="-120.182318">
        <ele>358.367565</ele>
        <time>2026-09-19T08:49:08.000Z</time>
      </trkpt>
      <trkpt lat="47.917481" lon="-120.183282">
        <ele>358.391685</ele>
        <time>2026-09-19T08:49:20.000Z</time>
      </trkpt>
      <trkpt lat="47.917477" lon="-120.183294">
        <ele>358.391918</ele>
        <time>2026-09-19T08:49:20.000Z</time>
      </trkpt>
      <trkpt lat="47.918032" lon="-120.183998">
        <ele>358.311991</ele>
        <time>2026-09-19T08:49:28.000Z</time>
      </trkpt>
      <trkpt lat="47.918891" lon="-120.185333">
        <ele>358.236071</ele>
        <time>2026-09-19T08:49:42.000Z</time>
      </trkpt>
      <trkpt lat="47.919623" lon="-120.186526">
        <ele>358.824605</ele>
        <time>2026-09-19T08:49:54.000Z</time>
      </trkpt>
      <trkpt lat="47.920388" lon="-120.187811">
        <ele>361.592137</ele>
        <time>2026-09-19T08:50:07.000Z</time>
      </trkpt>
      <trkpt lat="47.921072" lon="-120.189005">
        <ele>366.213099</ele>
        <time>2026-09-19T08:50:19.000Z</time>
      </trkpt>
      <trkpt lat="47.921198" lon="-120.189129">
        <ele>366.930174</ele>
        <time>2026-09-19T08:50:21.000Z</time>
      </trkpt>
      <trkpt lat="47.922388" lon="-120.189895">
        <ele>375.132403</ele>
        <time>2026-09-19T08:50:35.000Z</time>
      </trkpt>
      <trkpt lat="47.922643" lon="-120.189908">
        <ele>376.813931</ele>
        <time>2026-09-19T08:50:38.000Z</time>
      </trkpt>
      <trkpt lat="47.923583" lon="-120.190073">
        <ele>380.169132</ele>
        <time>2026-09-19T08:50:49.000Z</time>
      </trkpt>
      <trkpt lat="47.92423" lon="-120.190268">
        <ele>381.67648</ele>
        <time>2026-09-19T08:50:56.000Z</time>
      </trkpt>
      <trkpt lat="47.924684" lon="-120.190323">
        <ele>382.757395</ele>
        <time>2026-09-19T08:51:01.000Z</time>
      </trkpt>
      <trkpt lat="47.925033" lon="-120.190453">
        <ele>383.608414</ele>
        <time>2026-09-19T08:51:05.000Z</time>
      </trkpt>
      <trkpt lat="47.925309" lon="-120.190732">
        <ele>384.434532</ele>
        <time>2026-09-19T08:51:09.000Z</time>
      </trkpt>
      <trkpt lat="47.925442" lon="-120.191156">
        <ele>385.216611</ele>
        <time>2026-09-19T08:51:12.000Z</time>
      </trkpt>
      <trkpt lat="47.925623" lon="-120.192073">
        <ele>386.793491</ele>
        <time>2026-09-19T08:51:19.000Z</time>
      </trkpt>
      <trkpt lat="47.925702" lon="-120.192376">
        <ele>387.390163</ele>
        <time>2026-09-19T08:51:21.000Z</time>
      </trkpt>
      <trkpt lat="47.926157" lon="-120.193235">
        <ele>390.217594</ele>
        <time>2026-09-19T08:51:29.000Z</time>
      </trkpt>
      <trkpt lat="47.926197" lon="-120.19345">
        <ele>390.8128</ele>
        <time>2026-09-19T08:51:31.000Z</time>
      </trkpt>
      <trkpt lat="47.926221" lon="-120.193729">
        <ele>391.567919</ele>
        <time>2026-09-19T08:51:33.000Z</time>
      </trkpt>
      <trkpt lat="47.926218" lon="-120.193878">
        <ele>391.94429</ele>
        <time>2026-09-19T08:51:34.000Z</time>
      </trkpt>
      <trkpt lat="47.92614" lon="-120.194365">
        <ele>393.245671</ele>
        <time>2026-09-19T08:51:38.000Z</time>
      </trkpt>
      <trkpt lat="47.925977" lon="-120.195012">
        <ele>394.603141</ele>
        <time>2026-09-19T08:51:43.000Z</time>
      </trkpt>
      <trkpt lat="47.925933" lon="-120.195154">
        <ele>394.795902</ele>
        <time>2026-09-19T08:51:44.000Z</time>
      </trkpt>
      <trkpt lat="47.925553" lon="-120.19557">
        <ele>395.664565</ele>
        <time>2026-09-19T08:51:49.000Z</time>
      </trkpt>
      <trkpt lat="47.925222" lon="-120.195893">
        <ele>396.361936</ele>
        <time>2026-09-19T08:51:53.000Z</time>
      </trkpt>
      <trkpt lat="47.924881" lon="-120.196174">
        <ele>397.08683</ele>
        <time>2026-09-19T08:51:57.000Z</time>
      </trkpt>
      <trkpt lat="47.924632" lon="-120.196342">
        <ele>397.638529</ele>
        <time>2026-09-19T08:52:00.000Z</time>
      </trkpt>
      <trkpt lat="47.924625" lon="-120.19634">
        <ele>397.651332</ele>
        <time>2026-09-19T08:52:00.000Z</time>
      </trkpt>
      <trkpt lat="47.923992" lon="-120.196515">
        <ele>399.683717</ele>
        <time>2026-09-19T08:52:07.000Z</time>
      </trkpt>
      <trkpt lat="47.923711" lon="-120.196552">
        <ele>400.58217</ele>
        <time>2026-09-19T08:52:10.000Z</time>
      </trkpt>
      <trkpt lat="47.923625" lon="-120.196557">
        <ele>400.819321</ele>
        <time>2026-09-19T08:52:11.000Z</time>
      </trkpt>
      <trkpt lat="47.922956" lon="-120.196282">
        <ele>403.01014</ele>
        <time>2026-09-19T08:52:19.000Z</time>
      </trkpt>
      <trkpt lat="47.922082" lon="-120.195991">
        <ele>405.768625</ele>
        <time>2026-09-19T08:52:29.000Z</time>
      </trkpt>
      <trkpt lat="47.921513" lon="-120.195572">
        <ele>407.714601</ele>
        <time>2026-09-19T08:52:36.000Z</time>
      </trkpt>
      <trkpt lat="47.921407" lon="-120.195526">
        <ele>408.095284</ele>
        <time>2026-09-19T08:52:37.000Z</time>
      </trkpt>
      <trkpt lat="47.921194" lon="-120.195494">
        <ele>408.695689</ele>
        <time>2026-09-19T08:52:39.000Z</time>
      </trkpt>
      <trkpt lat="47.920746" lon="-120.195509">
        <ele>409.56511</ele>
        <time>2026-09-19T08:52:44.000Z</time>
      </trkpt>
      <trkpt lat="47.920429" lon="-120.195458">
        <ele>410.141521</ele>
        <time>2026-09-19T08:52:48.000Z</time>
      </trkpt>
      <trkpt lat="47.920094" lon="-120.195275">
        <ele>410.829189</ele>
        <time>2026-09-19T08:52:52.000Z</time>
      </trkpt>
      <trkpt lat="47.919926" lon="-120.195146">
        <ele>411.167451</ele>
        <time>2026-09-19T08:52:54.000Z</time>
      </trkpt>
      <trkpt lat="47.919821" lon="-120.19527">
        <ele>411.433542</ele>
        <time>2026-09-19T08:52:55.000Z</time>
      </trkpt>
      <trkpt lat="47.919643" lon="-120.195501">
        <ele>411.874733</ele>
        <time>2026-09-19T08:52:58.000Z</time>
      </trkpt>
      <trkpt lat="47.919192" lon="-120.196213">
        <ele>413.131614</ele>
        <time>2026-09-19T08:53:05.000Z</time>
      </trkpt>
      <trkpt lat="47.919004" lon="-120.196443">
        <ele>413.62819</ele>
        <time>2026-09-19T08:53:08.000Z</time>
      </trkpt>
      <trkpt lat="47.918019" lon="-120.197412">
        <ele>416.245302</ele>
        <time>2026-09-19T08:53:21.000Z</time>
      </trkpt>
      <trkpt lat="47.917717" lon="-120.197558">
        <ele>417.544843</ele>
        <time>2026-09-19T08:53:25.000Z</time>
      </trkpt>
      <trkpt lat="47.917342" lon="-120.197613">
        <ele>419.065474</ele>
        <time>2026-09-19T08:53:29.000Z</time>
      </trkpt>
      <trkpt lat="47.917032" lon="-120.197539">
        <ele>420.291987</ele>
        <time>2026-09-19T08:53:32.000Z</time>
      </trkpt>
      <trkpt lat="47.916837" lon="-120.19743">
        <ele>421.098787</ele>
        <time>2026-09-19T08:53:34.000Z</time>
      </trkpt>
      <trkpt lat="47.916239" lon="-120.197074">
        <ele>423.467915</ele>
        <time>2026-09-19T08:53:41.000Z</time>
      </trkpt>
      <trkpt lat="47.915594" lon="-120.196668">
        <ele>425.501218</ele>
        <time>2026-09-19T08:53:49.000Z</time>
      </trkpt>
      <trkpt lat="47.915297" lon="-120.196406">
        <ele>426.532918</ele>
        <time>2026-09-19T08:53:53.000Z</time>
      </trkpt>
      <trkpt lat="47.914433" lon="-120.195818">
        <ele>428.160496</ele>
        <time>2026-09-19T08:54:04.000Z</time>
      </trkpt>
      <trkpt lat="47.90999" lon="-120.193332">
        <ele>430.273863</ele>
        <time>2026-09-19T08:54:57.000Z</time>
      </trkpt>
      <trkpt lat="47.909859" lon="-120.193255">
        <ele>430.364528</ele>
        <time>2026-09-19T08:54:59.000Z</time>
      </trkpt>
      <trkpt lat="47.907518" lon="-120.191938">
        <ele>436.42779</ele>
        <time>2026-09-19T08:55:27.000Z</time>
      </trkpt>
      <trkpt lat="47.906085" lon="-120.190815">
        <ele>439.346772</ele>
        <time>2026-09-19T08:55:45.000Z</time>
      </trkpt>
      <trkpt lat="47.904887" lon="-120.189469">
        <ele>441.241732</ele>
        <time>2026-09-19T08:56:02.000Z</time>
      </trkpt>
      <trkpt lat="47.904345" lon="-120.188985">
        <ele>442.088596</ele>
        <time>2026-09-19T08:56:09.000Z</time>
      </trkpt>
      <trkpt lat="47.90395" lon="-120.188736">
        <ele>442.649941</ele>
        <time>2026-09-19T08:56:14.000Z</time>
      </trkpt>
      <trkpt lat="47.903767" lon="-120.188663">
        <ele>442.909822</ele>
        <time>2026-09-19T08:56:16.000Z</time>
      </trkpt>
      <trkpt lat="47.902653" lon="-120.188195">
        <ele>440.929993</ele>
        <time>2026-09-19T08:56:29.000Z</time>
      </trkpt>
      <trkpt lat="47.901895" lon="-120.188045">
        <ele>438.328943</ele>
        <time>2026-09-19T08:56:38.000Z</time>
      </trkpt>
      <trkpt lat="47.901204" lon="-120.187987">
        <ele>432.602695</ele>
        <time>2026-09-19T08:56:46.000Z</time>
      </trkpt>
      <trkpt lat="47.901196" lon="-120.18799">
        <ele>432.568212</ele>
        <time>2026-09-19T08:56:46.000Z</time>
      </trkpt>
      <trkpt lat="47.900889" lon="-120.187903">
        <ele>428.927976</ele>
        <time>2026-09-19T08:56:49.000Z</time>
      </trkpt>
      <trkpt lat="47.900466" lon="-120.188017">
        <ele>424.082792</ele>
        <time>2026-09-19T08:56:54.000Z</time>
      </trkpt>
      <trkpt lat="47.900362" lon="-120.188047">
        <ele>422.77152</ele>
        <time>2026-09-19T08:56:55.000Z</time>
      </trkpt>
      <trkpt lat="47.899593" lon="-120.187972">
        <ele>414.863039</ele>
        <time>2026-09-19T08:57:04.000Z</time>
      </trkpt>
      <trkpt lat="47.899109" lon="-120.187917">
        <ele>410.947099</ele>
        <time>2026-09-19T08:57:09.000Z</time>
      </trkpt>
      <trkpt lat="47.898458" lon="-120.187912">
        <ele>405.660592</ele>
        <time>2026-09-19T08:57:16.000Z</time>
      </trkpt>
      <trkpt lat="47.898364" lon="-120.187614">
        <ele>403.917448</ele>
        <time>2026-09-19T08:57:18.000Z</time>
      </trkpt>
      <trkpt lat="47.89832" lon="-120.187369">
        <ele>402.457334</ele>
        <time>2026-09-19T08:57:20.000Z</time>
      </trkpt>
      <trkpt lat="47.898342" lon="-120.187038">
        <ele>401.730633</ele>
        <time>2026-09-19T08:57:22.000Z</time>
      </trkpt>
      <trkpt lat="47.898566" lon="-120.186204">
        <ele>400.131403</ele>
        <time>2026-09-19T08:57:29.000Z</time>
      </trkpt>
      <trkpt lat="47.898759" lon="-120.185454">
        <ele>398.711761</ele>
        <time>2026-09-19T08:57:35.000Z</time>
      </trkpt>
      <trkpt lat="47.898899" lon="-120.185342">
        <ele>398.325946</ele>
        <time>2026-09-19T08:57:37.000Z</time>
      </trkpt>
      <trkpt lat="47.900453" lon="-120.183892">
        <ele>396.071968</ele>
        <time>2026-09-19T08:57:57.000Z</time>
      </trkpt>
      <trkpt lat="47.900536" lon="-120.183036">
        <ele>396.047636</ele>
        <time>2026-09-19T08:58:03.000Z</time>
      </trkpt>
      <trkpt lat="47.900373" lon="-120.18198">
        <ele>396.632563</ele>
        <time>2026-09-19T08:58:11.000Z</time>
      </trkpt>
      <trkpt lat="47.900165" lon="-120.181595">
        <ele>396.899879</ele>
        <time>2026-09-19T08:58:15.000Z</time>
      </trkpt>
      <trkpt lat="47.899816" lon="-120.181079">
        <ele>397.327586</ele>
        <time>2026-09-19T08:58:20.000Z</time>
      </trkpt>
      <trkpt lat="47.897437" lon="-120.177573">
        <ele>401.627157</ele>
        <time>2026-09-19T08:58:57.000Z</time>
      </trkpt>
      <trkpt lat="47.897114" lon="-120.177012">
        <ele>401.782742</ele>
        <time>2026-09-19T08:59:03.000Z</time>
      </trkpt>
      <trkpt lat="47.897053" lon="-120.176905">
        <ele>401.747621</ele>
        <time>2026-09-19T08:59:04.000Z</time>
      </trkpt>
      <trkpt lat="47.896416" lon="-120.175224">
        <ele>401.291967</ele>
        <time>2026-09-19T08:59:18.000Z</time>
      </trkpt>
      <trkpt lat="47.896351" lon="-120.175045">
        <ele>401.228149</ele>
        <time>2026-09-19T08:59:20.000Z</time>
      </trkpt>
      <trkpt lat="47.895804" lon="-120.172669">
        <ele>397.463994</ele>
        <time>2026-09-19T08:59:39.000Z</time>
      </trkpt>
      <trkpt lat="47.895642" lon="-120.172129">
        <ele>396.727173</ele>
        <time>2026-09-19T08:59:43.000Z</time>
      </trkpt>
      <trkpt lat="47.89541" lon="-120.17154">
        <ele>395.976101</ele>
        <time>2026-09-19T08:59:48.000Z</time>
      </trkpt>
      <trkpt lat="47.894599" lon="-120.16983">
        <ele>393.557112</ele>
        <time>2026-09-19T09:00:04.000Z</time>
      </trkpt>
      <trkpt lat="47.894387" lon="-120.169473">
        <ele>392.965327</ele>
        <time>2026-09-19T09:00:08.000Z</time>
      </trkpt>
      <trkpt lat="47.894266" lon="-120.169328">
        <ele>392.673953</ele>
        <time>2026-09-19T09:00:10.000Z</time>
      </trkpt>
      <trkpt lat="47.893984" lon="-120.169081">
        <ele>392.080664</ele>
        <time>2026-09-19T09:00:14.000Z</time>
      </trkpt>
      <trkpt lat="47.893423" lon="-120.168718">
        <ele>390.929632</ele>
        <time>2026-09-19T09:00:21.000Z</time>
      </trkpt>
      <trkpt lat="47.893083" lon="-120.168508">
        <ele>390.05389</ele>
        <time>2026-09-19T09:00:25.000Z</time>
      </trkpt>
      <trkpt lat="47.891787" lon="-120.167904">
        <ele>386.899085</ele>
        <time>2026-09-19T09:00:40.000Z</time>
      </trkpt>
      <trkpt lat="47.891549" lon="-120.167798">
        <ele>385.929541</ele>
        <time>2026-09-19T09:00:43.000Z</time>
      </trkpt>
      <trkpt lat="47.891292" lon="-120.167728">
        <ele>384.691668</ele>
        <time>2026-09-19T09:00:46.000Z</time>
      </trkpt>
      <trkpt lat="47.89113" lon="-120.167717">
        <ele>383.984103</ele>
        <time>2026-09-19T09:00:48.000Z</time>
      </trkpt>
      <trkpt lat="47.89056" lon="-120.167788">
        <ele>381.270968</ele>
        <time>2026-09-19T09:00:54.000Z</time>
      </trkpt>
      <trkpt lat="47.890136" lon="-120.167947">
        <ele>379.168715</ele>
        <time>2026-09-19T09:00:59.000Z</time>
      </trkpt>
      <trkpt lat="47.889562" lon="-120.168215">
        <ele>375.326106</ele>
        <time>2026-09-19T09:01:06.000Z</time>
      </trkpt>
      <trkpt lat="47.888501" lon="-120.168712">
        <ele>367.14509</ele>
        <time>2026-09-19T09:01:18.000Z</time>
      </trkpt>
      <trkpt lat="47.88825" lon="-120.168834">
        <ele>365.338721</ele>
        <time>2026-09-19T09:01:21.000Z</time>
      </trkpt>
      <trkpt lat="47.887756" lon="-120.16906">
        <ele>360.102686</ele>
        <time>2026-09-19T09:01:27.000Z</time>
      </trkpt>
      <trkpt lat="47.887292" lon="-120.169263">
        <ele>355.061172</ele>
        <time>2026-09-19T09:01:32.000Z</time>
      </trkpt>
      <trkpt lat="47.886918" lon="-120.169482">
        <ele>350.947136</ele>
        <time>2026-09-19T09:01:36.000Z</time>
      </trkpt>
      <trkpt lat="47.886645" lon="-120.169543">
        <ele>348.062694</ele>
        <time>2026-09-19T09:01:39.000Z</time>
      </trkpt>
      <trkpt lat="47.886342" lon="-120.169426">
        <ele>345.491329</ele>
        <time>2026-09-19T09:01:42.000Z</time>
      </trkpt>
      <trkpt lat="47.886101" lon="-120.169226">
        <ele>343.991906</ele>
        <time>2026-09-19T09:01:45.000Z</time>
      </trkpt>
      <trkpt lat="47.885907" lon="-120.168936">
        <ele>342.505515</ele>
        <time>2026-09-19T09:01:48.000Z</time>
      </trkpt>
      <trkpt lat="47.885689" lon="-120.168548">
        <ele>340.734616</ele>
        <time>2026-09-19T09:01:52.000Z</time>
      </trkpt>
      <trkpt lat="47.885583" lon="-120.168175">
        <ele>339.281154</ele>
        <time>2026-09-19T09:01:55.000Z</time>
      </trkpt>
      <trkpt lat="47.88556" lon="-120.167845">
        <ele>338.090004</ele>
        <time>2026-09-19T09:01:57.000Z</time>
      </trkpt>
      <trkpt lat="47.885589" lon="-120.167649">
        <ele>337.338569</ele>
        <time>2026-09-19T09:01:58.000Z</time>
      </trkpt>
      <trkpt lat="47.885694" lon="-120.167248">
        <ele>336.572036</ele>
        <time>2026-09-19T09:02:01.000Z</time>
      </trkpt>
      <trkpt lat="47.886178" lon="-120.165764">
        <ele>335.871087</ele>
        <time>2026-09-19T09:02:13.000Z</time>
      </trkpt>
      <trkpt lat="47.88626" lon="-120.165458">
        <ele>335.73205</ele>
        <time>2026-09-19T09:02:15.000Z</time>
      </trkpt>
      <trkpt lat="47.886307" lon="-120.165119">
        <ele>335.58688</ele>
        <time>2026-09-19T09:02:18.000Z</time>
      </trkpt>
      <trkpt lat="47.88632" lon="-120.164843">
        <ele>335.57938</ele>
        <time>2026-09-19T09:02:20.000Z</time>
      </trkpt>
      <trkpt lat="47.886284" lon="-120.164415">
        <ele>335.702014</ele>
        <time>2026-09-19T09:02:23.000Z</time>
      </trkpt>
      <trkpt lat="47.885902" lon="-120.162633">
        <ele>336.226017</ele>
        <time>2026-09-19T09:02:37.000Z</time>
      </trkpt>
      <trkpt lat="47.885688" lon="-120.161679">
        <ele>338.008007</ele>
        <time>2026-09-19T09:02:45.000Z</time>
      </trkpt>
      <trkpt lat="47.885567" lon="-120.161138">
        <ele>339.258494</ele>
        <time>2026-09-19T09:02:49.000Z</time>
      </trkpt>
      <trkpt lat="47.885444" lon="-120.160533">
        <ele>340.655767</ele>
        <time>2026-09-19T09:02:54.000Z</time>
      </trkpt>
      <trkpt lat="47.885239" lon="-120.15954">
        <ele>342.885374</ele>
        <time>2026-09-19T09:03:02.000Z</time>
      </trkpt>
      <trkpt lat="47.885075" lon="-120.158812">
        <ele>344.491364</ele>
        <time>2026-09-19T09:03:08.000Z</time>
      </trkpt>
      <trkpt lat="47.884629" lon="-120.156715">
        <ele>348.305268</ele>
        <time>2026-09-19T09:03:24.000Z</time>
      </trkpt>
      <trkpt lat="47.884526" lon="-120.156195">
        <ele>348.821042</ele>
        <time>2026-09-19T09:03:28.000Z</time>
      </trkpt>
      <trkpt lat="47.884445" lon="-120.155877">
        <ele>349.134118</ele>
        <time>2026-09-19T09:03:31.000Z</time>
      </trkpt>
      <trkpt lat="47.884276" lon="-120.155044">
        <ele>349.965852</ele>
        <time>2026-09-19T09:03:37.000Z</time>
      </trkpt>
      <trkpt lat="47.884211" lon="-120.154758">
        <ele>350.235961</ele>
        <time>2026-09-19T09:03:39.000Z</time>
      </trkpt>
      <trkpt lat="47.884041" lon="-120.153948">
        <ele>349.9801</ele>
        <time>2026-09-19T09:03:45.000Z</time>
      </trkpt>
      <trkpt lat="47.883785" lon="-120.152824">
        <ele>349.621026</ele>
        <time>2026-09-19T09:03:54.000Z</time>
      </trkpt>
      <trkpt lat="47.883644" lon="-120.152116">
        <ele>349.393627</ele>
        <time>2026-09-19T09:04:00.000Z</time>
      </trkpt>
      <trkpt lat="47.88355" lon="-120.151762">
        <ele>349.270042</ele>
        <time>2026-09-19T09:04:03.000Z</time>
      </trkpt>
      <trkpt lat="47.883434" lon="-120.151191">
        <ele>349.069958</ele>
        <time>2026-09-19T09:04:07.000Z</time>
      </trkpt>
      <trkpt lat="47.883418" lon="-120.151099">
        <ele>349.039855</ele>
        <time>2026-09-19T09:04:08.000Z</time>
      </trkpt>
      <trkpt lat="47.883113" lon="-120.14971">
        <ele>348.558557</ele>
        <time>2026-09-19T09:04:19.000Z</time>
      </trkpt>
      <trkpt lat="47.882843" lon="-120.148351">
        <ele>348.071903</ele>
        <time>2026-09-19T09:04:30.000Z</time>
      </trkpt>
      <trkpt lat="47.882313" lon="-120.145926">
        <ele>346.69293</ele>
        <time>2026-09-19T09:04:49.000Z</time>
      </trkpt>
      <trkpt lat="47.882167" lon="-120.145272">
        <ele>346.164944</ele>
        <time>2026-09-19T09:04:54.000Z</time>
      </trkpt>
      <trkpt lat="47.881878" lon="-120.143997">
        <ele>344.926873</ele>
        <time>2026-09-19T09:05:04.000Z</time>
      </trkpt>
      <trkpt lat="47.881847" lon="-120.14385">
        <ele>344.745053</ele>
        <time>2026-09-19T09:05:05.000Z</time>
      </trkpt>
      <trkpt lat="47.881055" lon="-120.139975">
        <ele>340.386268</ele>
        <time>2026-09-19T09:05:35.000Z</time>
      </trkpt>
      <trkpt lat="47.881028" lon="-120.139626">
        <ele>340.032726</ele>
        <time>2026-09-19T09:05:38.000Z</time>
      </trkpt>
      <trkpt lat="47.881139" lon="-120.129587">
        <ele>340.958545</ele>
        <time>2026-09-19T09:06:53.000Z</time>
      </trkpt>
      <trkpt lat="47.881151" lon="-120.127833">
        <ele>341.35056</ele>
        <time>2026-09-19T09:07:06.000Z</time>
      </trkpt>
      <trkpt lat="47.881176" lon="-120.126557">
        <ele>341.712462</ele>
        <time>2026-09-19T09:07:16.000Z</time>
      </trkpt>
      <trkpt lat="47.881132" lon="-120.126167">
        <ele>341.824375</ele>
        <time>2026-09-19T09:07:19.000Z</time>
      </trkpt>
      <trkpt lat="47.88107" lon="-120.12591">
        <ele>341.898706</ele>
        <time>2026-09-19T09:07:21.000Z</time>
      </trkpt>
      <trkpt lat="47.880381" lon="-120.123556">
        <ele>342.671046</ele>
        <time>2026-09-19T09:07:40.000Z</time>
      </trkpt>
      <trkpt lat="47.880162" lon="-120.122823">
        <ele>342.974617</ele>
        <time>2026-09-19T09:07:46.000Z</time>
      </trkpt>
      <trkpt lat="47.880073" lon="-120.122577">
        <ele>343.08652</ele>
        <time>2026-09-19T09:07:48.000Z</time>
      </trkpt>
      <trkpt lat="47.879927" lon="-120.122266">
        <ele>343.229314</ele>
        <time>2026-09-19T09:07:51.000Z</time>
      </trkpt>
      <trkpt lat="47.879225" lon="-120.121085">
        <ele>343.671899</ele>
        <time>2026-09-19T09:08:03.000Z</time>
      </trkpt>
      <trkpt lat="47.879108" lon="-120.120901">
        <ele>343.656417</ele>
        <time>2026-09-19T09:08:05.000Z</time>
      </trkpt>
      <trkpt lat="47.878702" lon="-120.120161">
        <ele>343.597009</ele>
        <time>2026-09-19T09:08:12.000Z</time>
      </trkpt>
      <trkpt lat="47.878243" lon="-120.119308">
        <ele>343.530214</ele>
        <time>2026-09-19T09:08:20.000Z</time>
      </trkpt>
      <trkpt lat="47.877574" lon="-120.117815">
        <ele>342.8798</ele>
        <time>2026-09-19T09:08:33.000Z</time>
      </trkpt>
      <trkpt lat="47.877074" lon="-120.11662">
        <ele>342.716479</ele>
        <time>2026-09-19T09:08:44.000Z</time>
      </trkpt>
      <trkpt lat="47.876769" lon="-120.115872">
        <ele>343.015368</ele>
        <time>2026-09-19T09:08:51.000Z</time>
      </trkpt>
      <trkpt lat="47.876217" lon="-120.114599">
        <ele>343.755935</ele>
        <time>2026-09-19T09:09:02.000Z</time>
      </trkpt>
      <trkpt lat="47.875944" lon="-120.11392">
        <ele>344.869303</ele>
        <time>2026-09-19T09:09:08.000Z</time>
      </trkpt>
      <trkpt lat="47.875689" lon="-120.113315">
        <ele>345.86411</ele>
        <time>2026-09-19T09:09:13.000Z</time>
      </trkpt>
      <trkpt lat="47.875546" lon="-120.112997">
        <ele>346.396997</ele>
        <time>2026-09-19T09:09:16.000Z</time>
      </trkpt>
      <trkpt lat="47.87505" lon="-120.11185">
        <ele>348.178181</ele>
        <time>2026-09-19T09:09:26.000Z</time>
      </trkpt>
      <trkpt lat="47.874484" lon="-120.110538">
        <ele>350.085702</ele>
        <time>2026-09-19T09:09:38.000Z</time>
      </trkpt>
      <trkpt lat="47.874375" lon="-120.110211">
        <ele>350.536684</ele>
        <time>2026-09-19T09:09:41.000Z</time>
      </trkpt>
      <trkpt lat="47.874249" lon="-120.109876">
        <ele>350.917264</ele>
        <time>2026-09-19T09:09:44.000Z</time>
      </trkpt>
      <trkpt lat="47.876304" lon="-120.11033">
        <ele>354.156491</ele>
        <time>2026-09-19T09:10:07.000Z</time>
      </trkpt>
      <trkpt lat="47.877105" lon="-120.111162">
        <ele>355.843217</ele>
        <time>2026-09-19T09:10:18.000Z</time>
      </trkpt>
      <trkpt lat="47.880985" lon="-120.114401">
        <ele>362.681861</ele>
        <time>2026-09-19T09:11:07.000Z</time>
      </trkpt>
      <trkpt lat="47.881079" lon="-120.114478">
        <ele>362.746864</ele>
        <time>2026-09-19T09:11:08.000Z</time>
      </trkpt>
      <trkpt lat="47.881598" lon="-120.115239">
        <ele>363.197881</ele>
        <time>2026-09-19T09:11:16.000Z</time>
      </trkpt>
      <trkpt lat="47.88176" lon="-120.115549">
        <ele>363.356049</ele>
        <time>2026-09-19T09:11:19.000Z</time>
      </trkpt>
      <trkpt lat="47.881941" lon="-120.11626">
        <ele>363.738548</ele>
        <time>2026-09-19T09:11:25.000Z</time>
      </trkpt>
      <trkpt lat="47.882152" lon="-120.116878">
        <ele>364.108868</ele>
        <time>2026-09-19T09:11:30.000Z</time>
      </trkpt>
      <trkpt lat="47.882279" lon="-120.117758">
        <ele>364.579001</ele>
        <time>2026-09-19T09:11:37.000Z</time>
      </trkpt>
      <trkpt lat="47.882354" lon="-120.11785">
        <ele>364.657441</ele>
        <time>2026-09-19T09:11:38.000Z</time>
      </trkpt>
      <trkpt lat="47.882464" lon="-120.117891">
        <ele>364.752438</ele>
        <time>2026-09-19T09:11:39.000Z</time>
      </trkpt>
      <trkpt lat="47.882682" lon="-120.117769">
        <ele>364.987495</ele>
        <time>2026-09-19T09:11:42.000Z</time>
      </trkpt>
      <trkpt lat="47.882961" lon="-120.117571">
        <ele>365.452339</ele>
        <time>2026-09-19T09:11:45.000Z</time>
      </trkpt>
      <trkpt lat="47.883067" lon="-120.117521">
        <ele>365.6335</ele>
        <time>2026-09-19T09:11:46.000Z</time>
      </trkpt>
      <trkpt lat="47.883194" lon="-120.117492">
        <ele>365.825771</ele>
        <time>2026-09-19T09:11:47.000Z</time>
      </trkpt>
      <trkpt lat="47.883309" lon="-120.117531">
        <ele>365.996516</ele>
        <time>2026-09-19T09:11:48.000Z</time>
      </trkpt>
      <trkpt lat="47.883372" lon="-120.117574">
        <ele>366.109235</ele>
        <time>2026-09-19T09:11:49.000Z</time>
      </trkpt>
      <trkpt lat="47.883436" lon="-120.117691">
        <ele>366.249292</ele>
        <time>2026-09-19T09:11:50.000Z</time>
      </trkpt>
      <trkpt lat="47.88349" lon="-120.117975">
        <ele>366.548004</ele>
        <time>2026-09-19T09:11:52.000Z</time>
      </trkpt>
      <trkpt lat="47.883504" lon="-120.118275">
        <ele>366.854867</ele>
        <time>2026-09-19T09:11:54.000Z</time>
      </trkpt>
      <trkpt lat="47.88358" lon="-120.118593">
        <ele>367.189509</ele>
        <time>2026-09-19T09:11:57.000Z</time>
      </trkpt>
      <trkpt lat="47.883849" lon="-120.119137">
        <ele>367.588253</ele>
        <time>2026-09-19T09:12:02.000Z</time>
      </trkpt>
      <trkpt lat="47.884093" lon="-120.119658">
        <ele>367.662434</ele>
        <time>2026-09-19T09:12:07.000Z</time>
      </trkpt>
      <trkpt lat="47.884395" lon="-120.120123">
        <ele>367.739709</ele>
        <time>2026-09-19T09:12:12.000Z</time>
      </trkpt>
      <trkpt lat="47.88473" lon="-120.120603">
        <ele>367.821834</ele>
        <time>2026-09-19T09:12:17.000Z</time>
      </trkpt>
      <trkpt lat="47.884923" lon="-120.120872">
        <ele>367.865152</ele>
        <time>2026-09-19T09:12:20.000Z</time>
      </trkpt>
      <trkpt lat="47.884958" lon="-120.120998">
        <ele>367.849296</ele>
        <time>2026-09-19T09:12:21.000Z</time>
      </trkpt>
      <trkpt lat="47.885082" lon="-120.121723">
        <ele>367.769556</ele>
        <time>2026-09-19T09:12:27.000Z</time>
      </trkpt>
      <trkpt lat="47.885078" lon="-120.121926">
        <ele>367.747322</ele>
        <time>2026-09-19T09:12:29.000Z</time>
      </trkpt>
      <trkpt lat="47.884965" lon="-120.122352">
        <ele>367.696912</ele>
        <time>2026-09-19T09:12:32.000Z</time>
      </trkpt>
      <trkpt lat="47.884858" lon="-120.122833">
        <ele>367.643161</ele>
        <time>2026-09-19T09:12:36.000Z</time>
      </trkpt>
      <trkpt lat="47.884833" lon="-120.123317">
        <ele>367.591046</ele>
        <time>2026-09-19T09:12:40.000Z</time>
      </trkpt>
      <trkpt lat="47.884878" lon="-120.123783">
        <ele>367.5127</ele>
        <time>2026-09-19T09:12:44.000Z</time>
      </trkpt>
      <trkpt lat="47.884944" lon="-120.124671">
        <ele>367.350771</ele>
        <time>2026-09-19T09:12:51.000Z</time>
      </trkpt>
      <trkpt lat="47.885047" lon="-120.125264">
        <ele>367.236836</ele>
        <time>2026-09-19T09:12:56.000Z</time>
      </trkpt>
      <trkpt lat="47.885241" lon="-120.125941">
        <ele>367.09946</ele>
        <time>2026-09-19T09:13:01.000Z</time>
      </trkpt>
      <trkpt lat="47.885463" lon="-120.126527">
        <ele>367.028341</ele>
        <time>2026-09-19T09:13:06.000Z</time>
      </trkpt>
      <trkpt lat="47.885577" lon="-120.126779">
        <ele>366.998038</ele>
        <time>2026-09-19T09:13:08.000Z</time>
      </trkpt>
      <trkpt lat="47.885768" lon="-120.127127">
        <ele>366.955204</ele>
        <time>2026-09-19T09:13:11.000Z</time>
      </trkpt>
      <trkpt lat="47.885937" lon="-120.127309">
        <ele>366.926594</ele>
        <time>2026-09-19T09:13:13.000Z</time>
      </trkpt>
      <trkpt lat="47.886059" lon="-120.127436">
        <ele>366.904066</ele>
        <time>2026-09-19T09:13:15.000Z</time>
      </trkpt>
      <trkpt lat="47.88631" lon="-120.127606">
        <ele>366.865117</ele>
        <time>2026-09-19T09:13:18.000Z</time>
      </trkpt>
      <trkpt lat="47.886756" lon="-120.127824">
        <ele>366.85081</ele>
        <time>2026-09-19T09:13:23.000Z</time>
      </trkpt>
      <trkpt lat="47.886868" lon="-120.127898">
        <ele>366.869106</ele>
        <time>2026-09-19T09:13:24.000Z</time>
      </trkpt>
      <trkpt lat="47.886969" lon="-120.128035">
        <ele>366.886896</ele>
        <time>2026-09-19T09:13:26.000Z</time>
      </trkpt>
      <trkpt lat="47.88708" lon="-120.12823">
        <ele>366.909921</ele>
        <time>2026-09-19T09:13:28.000Z</time>
      </trkpt>
      <trkpt lat="47.887274" lon="-120.128931">
        <ele>366.9803</ele>
        <time>2026-09-19T09:13:34.000Z</time>
      </trkpt>
      <trkpt lat="47.887402" lon="-120.129174">
        <ele>367.00877</ele>
        <time>2026-09-19T09:13:36.000Z</time>
      </trkpt>
      <trkpt lat="47.887453" lon="-120.129438">
        <ele>367.033882</ele>
        <time>2026-09-19T09:13:38.000Z</time>
      </trkpt>
      <trkpt lat="47.887456" lon="-120.129673">
        <ele>367.054134</ele>
        <time>2026-09-19T09:13:40.000Z</time>
      </trkpt>
      <trkpt lat="47.888062" lon="-120.129692">
        <ele>367.564214</ele>
        <time>2026-09-19T09:13:47.000Z</time>
      </trkpt>
      <trkpt lat="47.888184" lon="-120.129734">
        <ele>367.698048</ele>
        <time>2026-09-19T09:13:48.000Z</time>
      </trkpt>
      <trkpt lat="47.888394" lon="-120.129849">
        <ele>367.917657</ele>
        <time>2026-09-19T09:13:50.000Z</time>
      </trkpt>
      <trkpt lat="47.888631" lon="-120.130114">
        <ele>368.232003</ele>
        <time>2026-09-19T09:13:53.000Z</time>
      </trkpt>
      <trkpt lat="47.888808" lon="-120.130443">
        <ele>368.515955</ele>
        <time>2026-09-19T09:13:56.000Z</time>
      </trkpt>
      <trkpt lat="47.888958" lon="-120.130988">
        <ele>368.914333</ele>
        <time>2026-09-19T09:14:00.000Z</time>
      </trkpt>
      <trkpt lat="47.889048" lon="-120.131568">
        <ele>369.088438</ele>
        <time>2026-09-19T09:14:04.000Z</time>
      </trkpt>
      <trkpt lat="47.889071" lon="-120.131904">
        <ele>369.184518</ele>
        <time>2026-09-19T09:14:07.000Z</time>
      </trkpt>
      <trkpt lat="47.889122" lon="-120.132339">
        <ele>369.311678</ele>
        <time>2026-09-19T09:14:10.000Z</time>
      </trkpt>
      <trkpt lat="47.889162" lon="-120.13257">
        <ele>369.380845</ele>
        <time>2026-09-19T09:14:12.000Z</time>
      </trkpt>
      <trkpt lat="47.889223" lon="-120.132716">
        <ele>369.427682</ele>
        <time>2026-09-19T09:14:13.000Z</time>
      </trkpt>
      <trkpt lat="47.889339" lon="-120.132986">
        <ele>369.519015</ele>
        <time>2026-09-19T09:14:15.000Z</time>
      </trkpt>
      <trkpt lat="47.889588" lon="-120.133241">
        <ele>369.647512</ele>
        <time>2026-09-19T09:14:18.000Z</time>
      </trkpt>
      <trkpt lat="47.890443" lon="-120.133801">
        <ele>370.456225</ele>
        <time>2026-09-19T09:14:28.000Z</time>
      </trkpt>
      <trkpt lat="47.890897" lon="-120.134004">
        <ele>370.876401</ele>
        <time>2026-09-19T09:14:33.000Z</time>
      </trkpt>
      <trkpt lat="47.893253" lon="-120.135031">
        <ele>370.84247</ele>
        <time>2026-09-19T09:15:00.000Z</time>
      </trkpt>
      <trkpt lat="47.893371" lon="-120.135053">
        <ele>370.628417</ele>
        <time>2026-09-19T09:15:01.000Z</time>
      </trkpt>
      <trkpt lat="47.89364" lon="-120.135029">
        <ele>370.155953</ele>
        <time>2026-09-19T09:15:04.000Z</time>
      </trkpt>
      <trkpt lat="47.89456" lon="-120.134817">
        <ele>368.475907</ele>
        <time>2026-09-19T09:15:14.000Z</time>
      </trkpt>
      <trkpt lat="47.894786" lon="-120.134852">
        <ele>368.073393</ele>
        <time>2026-09-19T09:15:17.000Z</time>
      </trkpt>
      <trkpt lat="47.894974" lon="-120.135034">
        <ele>367.934954</ele>
        <time>2026-09-19T09:15:19.000Z</time>
      </trkpt>
      <trkpt lat="47.895617" lon="-120.135983">
        <ele>367.648691</ele>
        <time>2026-09-19T09:15:29.000Z</time>
      </trkpt>
      <trkpt lat="47.896167" lon="-120.136788">
        <ele>367.4866</ele>
        <time>2026-09-19T09:15:38.000Z</time>
      </trkpt>
      <trkpt lat="47.898833" lon="-120.140712">
        <ele>373.480887</ele>
        <time>2026-09-19T09:16:20.000Z</time>
      </trkpt>
      <trkpt lat="47.897286" lon="-120.143507">
        <ele>372.201943</ele>
        <time>2026-09-19T09:16:47.000Z</time>
      </trkpt>
      <trkpt lat="47.896298" lon="-120.145327">
        <ele>373.147371</ele>
        <time>2026-09-19T09:17:04.000Z</time>
      </trkpt>
      <trkpt lat="47.896227" lon="-120.145563">
        <ele>373.536343</ele>
        <time>2026-09-19T09:17:06.000Z</time>
      </trkpt>
      <trkpt lat="47.895869" lon="-120.147725">
        <ele>377.501297</ele>
        <time>2026-09-19T09:17:23.000Z</time>
      </trkpt>
      <trkpt lat="47.89585" lon="-120.148213">
        <ele>378.71646</ele>
        <time>2026-09-19T09:17:27.000Z</time>
      </trkpt>
      <trkpt lat="47.895864" lon="-120.148602">
        <ele>379.696234</ele>
        <time>2026-09-19T09:17:30.000Z</time>
      </trkpt>
      <trkpt lat="47.895898" lon="-120.148906">
        <ele>380.494169</ele>
        <time>2026-09-19T09:17:32.000Z</time>
      </trkpt>
      <trkpt lat="47.895944" lon="-120.149153">
        <ele>381.15358</ele>
        <time>2026-09-19T09:17:34.000Z</time>
      </trkpt>
      <trkpt lat="47.896136" lon="-120.149524">
        <ele>382.326214</ele>
        <time>2026-09-19T09:17:37.000Z</time>
      </trkpt>
      <trkpt lat="47.897965" lon="-120.153807">
        <ele>389.825857</ele>
        <time>2026-09-19T09:18:15.000Z</time>
      </trkpt>
      <trkpt lat="47.898049" lon="-120.153903">
        <ele>389.98983</ele>
        <time>2026-09-19T09:18:16.000Z</time>
      </trkpt>
      <trkpt lat="47.898161" lon="-120.153981">
        <ele>390.174374</ele>
        <time>2026-09-19T09:18:17.000Z</time>
      </trkpt>
      <trkpt lat="47.899056" lon="-120.154222">
        <ele>386.141425</ele>
        <time>2026-09-19T09:18:27.000Z</time>
      </trkpt>
      <trkpt lat="47.899197" lon="-120.154278">
        <ele>385.437714</ele>
        <time>2026-09-19T09:18:29.000Z</time>
      </trkpt>
      <trkpt lat="47.899335" lon="-120.154377">
        <ele>384.782698</ele>
        <time>2026-09-19T09:18:31.000Z</time>
      </trkpt>
      <trkpt lat="47.899618" lon="-120.154668">
        <ele>383.202935</ele>
        <time>2026-09-19T09:18:35.000Z</time>
      </trkpt>
      <trkpt lat="47.899977" lon="-120.155222">
        <ele>381.103135</ele>
        <time>2026-09-19T09:18:41.000Z</time>
      </trkpt>
      <trkpt lat="47.900198" lon="-120.155638">
        <ele>379.838356</ele>
        <time>2026-09-19T09:18:45.000Z</time>
      </trkpt>
      <trkpt lat="47.901753" lon="-120.158846">
        <ele>372.574249</ele>
        <time>2026-09-19T09:19:15.000Z</time>
      </trkpt>
      <trkpt lat="47.902879" lon="-120.161103">
        <ele>371.390932</ele>
        <time>2026-09-19T09:19:36.000Z</time>
      </trkpt>
      <trkpt lat="47.903947" lon="-120.162763">
        <ele>370.90963</ele>
        <time>2026-09-19T09:19:53.000Z</time>
      </trkpt>
      <trkpt lat="47.904561" lon="-120.164189">
        <ele>370.211491</ele>
        <time>2026-09-19T09:20:06.000Z</time>
      </trkpt>
      <trkpt lat="47.904882" lon="-120.164802">
        <ele>369.76882</ele>
        <time>2026-09-19T09:20:12.000Z</time>
      </trkpt>
      <trkpt lat="47.905101" lon="-120.165083">
        <ele>369.515946</ele>
        <time>2026-09-19T09:20:15.000Z</time>
      </trkpt>
      <trkpt lat="47.905389" lon="-120.165397">
        <ele>369.208139</ele>
        <time>2026-09-19T09:20:19.000Z</time>
      </trkpt>
      <trkpt lat="47.905966" lon="-120.166762">
        <ele>370.178078</ele>
        <time>2026-09-19T09:20:31.000Z</time>
      </trkpt>
      <trkpt lat="47.906262" lon="-120.167729">
        <ele>370.807941</ele>
        <time>2026-09-19T09:20:39.000Z</time>
      </trkpt>
      <trkpt lat="47.906761" lon="-120.168818">
        <ele>368.908375</ele>
        <time>2026-09-19T09:20:49.000Z</time>
      </trkpt>
      <trkpt lat="47.907335" lon="-120.170183">
        <ele>366.254125</ele>
        <time>2026-09-19T09:21:01.000Z</time>
      </trkpt>
      <trkpt lat="47.908397" lon="-120.172555">
        <ele>359.646136</ele>
        <time>2026-09-19T09:21:22.000Z</time>
      </trkpt>
      <trkpt lat="47.908863" lon="-120.173552">
        <ele>358.676375</ele>
        <time>2026-09-19T09:21:31.000Z</time>
      </trkpt>
      <trkpt lat="47.909839" lon="-120.175488">
        <ele>358.504193</ele>
        <time>2026-09-19T09:21:49.000Z</time>
      </trkpt>
      <trkpt lat="47.910198" lon="-120.175987">
        <ele>358.866175</ele>
        <time>2026-09-19T09:21:54.000Z</time>
      </trkpt>
      <trkpt lat="47.91102" lon="-120.176944">
        <ele>359.162623</ele>
        <time>2026-09-19T09:22:06.000Z</time>
      </trkpt>
      <trkpt lat="47.911833" lon="-120.177635">
        <ele>359.176071</ele>
        <time>2026-09-19T09:22:16.000Z</time>
      </trkpt>
      <trkpt lat="47.912471" lon="-120.17809">
        <ele>359.108743</ele>
        <time>2026-09-19T09:22:24.000Z</time>
      </trkpt>
      <trkpt lat="47.914971" lon="-120.180311">
        <ele>358.663965</ele>
        <time>2026-09-19T09:22:56.000Z</time>
      </trkpt>
      <trkpt lat="47.915261" lon="-120.180592">
        <ele>358.605714</ele>
        <time>2026-09-19T09:23:00.000Z</time>
      </trkpt>
      <trkpt lat="47.915595" lon="-120.181072">
        <ele>358.519712</ele>
        <time>2026-09-19T09:23:05.000Z</time>
      </trkpt>
      <trkpt lat="47.916572" lon="-120.182313">
        <ele>358.302675</ele>
        <time>2026-09-19T09:23:19.000Z</time>
      </trkpt>
      <trkpt lat="47.91747" lon="-120.18328">
        <ele>358.37008</ele>
        <time>2026-09-19T09:23:31.000Z</time>
      </trkpt>
      <trkpt lat="47.917483" lon="-120.18328">
        <ele>358.370711</ele>
        <time>2026-09-19T09:23:31.000Z</time>
      </trkpt>
      <trkpt lat="47.918022" lon="-120.184">
        <ele>358.38176</ele>
        <time>2026-09-19T09:23:39.000Z</time>
      </trkpt>
      <trkpt lat="47.918894" lon="-120.185327">
        <ele>358.171682</ele>
        <time>2026-09-19T09:23:53.000Z</time>
      </trkpt>
      <trkpt lat="47.919628" lon="-120.186531">
        <ele>359.04049</ele>
        <time>2026-09-19T09:24:05.000Z</time>
      </trkpt>
      <trkpt lat="47.920405" lon="-120.187809">
        <ele>360.748243</ele>
        <time>2026-09-19T09:24:18.000Z</time>
      </trkpt>
      <trkpt lat="47.92108" lon="-120.188996">
        <ele>366.663326</ele>
        <time>2026-09-19T09:24:30.000Z</time>
      </trkpt>
      <trkpt lat="47.921213" lon="-120.189133">
        <ele>367.581229</ele>
        <time>2026-09-19T09:24:32.000Z</time>
      </trkpt>
      <trkpt lat="47.922388" lon="-120.189889">
        <ele>374.708904</ele>
        <time>2026-09-19T09:24:46.000Z</time>
      </trkpt>
      <trkpt lat="47.922644" lon="-120.189902">
        <ele>376.134371</ele>
        <time>2026-09-19T09:24:49.000Z</time>
      </trkpt>
      <trkpt lat="47.923589" lon="-120.190083">
        <ele>380.789232</ele>
        <time>2026-09-19T09:25:00.000Z</time>
      </trkpt>
      <trkpt lat="47.924225" lon="-120.190278">
        <ele>381.87268</ele>
        <time>2026-09-19T09:25:07.000Z</time>
      </trkpt>
      <trkpt lat="47.924684" lon="-120.190311">
        <ele>382.649618</ele>
        <time>2026-09-19T09:25:12.000Z</time>
      </trkpt>
      <trkpt lat="47.925029" lon="-120.190448">
        <ele>383.225267</ele>
        <time>2026-09-19T09:25:16.000Z</time>
      </trkpt>
      <trkpt lat="47.9253" lon="-120.190747">
        <ele>384.001983</ele>
        <time>2026-09-19T09:25:20.000Z</time>
      </trkpt>
      <trkpt lat="47.925443" lon="-120.19117">
        <ele>385.057175</ele>
        <time>2026-09-19T09:25:24.000Z</time>
      </trkpt>
      <trkpt lat="47.925618" lon="-120.192076">
        <ele>387.184653</ele>
        <time>2026-09-19T09:25:31.000Z</time>
      </trkpt>
      <trkpt lat="47.925719" lon="-120.192387">
        <ele>387.912264</ele>
        <time>2026-09-19T09:25:34.000Z</time>
      </trkpt>
      <trkpt lat="47.926168" lon="-120.193228">
        <ele>390.299097</ele>
        <time>2026-09-19T09:25:42.000Z</time>
      </trkpt>
      <trkpt lat="47.926212" lon="-120.193443">
        <ele>390.791533</ele>
        <time>2026-09-19T09:25:44.000Z</time>
      </trkpt>
      <trkpt lat="47.926217" lon="-120.193744">
        <ele>391.416283</ele>
        <time>2026-09-19T09:25:46.000Z</time>
      </trkpt>
      <trkpt lat="47.926213" lon="-120.193883">
        <ele>391.727661</ele>
        <time>2026-09-19T09:25:47.000Z</time>
      </trkpt>
      <trkpt lat="47.926135" lon="-120.19437">
        <ele>392.804349</ele>
        <time>2026-09-19T09:25:51.000Z</time>
      </trkpt>
      <trkpt lat="47.925974" lon="-120.19501">
        <ele>394.276414</ele>
        <time>2026-09-19T09:25:56.000Z</time>
      </trkpt>
      <trkpt lat="47.925944" lon="-120.195153">
        <ele>394.619347</ele>
        <time>2026-09-19T09:25:57.000Z</time>
      </trkpt>
      <trkpt lat="47.925554" lon="-120.195568">
        <ele>395.837733</ele>
        <time>2026-09-19T09:26:02.000Z</time>
      </trkpt>
      <trkpt lat="47.925233" lon="-120.195878">
        <ele>396.595835</ele>
        <time>2026-09-19T09:26:06.000Z</time>
      </trkpt>
      <trkpt lat="47.92487" lon="-120.196172">
        <ele>397.383848</ele>
        <time>2026-09-19T09:26:11.000Z</time>
      </trkpt>
      <trkpt lat="47.924628" lon="-120.196342">
        <ele>397.916012</ele>
        <time>2026-09-19T09:26:14.000Z</time>
      </trkpt>
      <trkpt lat="47.924621" lon="-120.196339">
        <ele>397.923994</ele>
        <time>2026-09-19T09:26:14.000Z</time>
      </trkpt>
      <trkpt lat="47.923996" lon="-120.196522">
        <ele>399.428539</ele>
        <time>2026-09-19T09:26:21.000Z</time>
      </trkpt>
      <trkpt lat="47.923712" lon="-120.196553">
        <ele>400.395918</ele>
        <time>2026-09-19T09:26:24.000Z</time>
      </trkpt>
      <trkpt lat="47.923643" lon="-120.196561">
        <ele>400.651255</ele>
        <time>2026-09-19T09:26:25.000Z</time>
      </trkpt>
      <trkpt lat="47.92296" lon="-120.196285">
        <ele>403.010134</ele>
        <time>2026-09-19T09:26:33.000Z</time>
      </trkpt>
      <trkpt lat="47.922092" lon="-120.19598">
        <ele>405.849973</ele>
        <time>2026-09-19T09:26:43.000Z</time>
      </trkpt>
      <trkpt lat="47.92152" lon="-120.195573">
        <ele>407.582048</ele>
        <time>2026-09-19T09:26:50.000Z</time>
      </trkpt>
      <trkpt lat="47.921404" lon="-120.195515">
        <ele>407.920891</ele>
        <time>2026-09-19T09:26:51.000Z</time>
      </trkpt>
      <trkpt lat="47.921206" lon="-120.195492">
        <ele>408.46083</ele>
        <time>2026-09-19T09:26:53.000Z</time>
      </trkpt>
      <trkpt lat="47.920738" lon="-120.195507">
        <ele>409.721605</ele>
        <time>2026-09-19T09:26:58.000Z</time>
      </trkpt>
      <trkpt lat="47.920435" lon="-120.195458">
        <ele>410.298566</ele>
        <time>2026-09-19T09:27:01.000Z</time>
      </trkpt>
      <trkpt lat="47.920098" lon="-120.195273">
        <ele>410.910948</ele>
        <time>2026-09-19T09:27:05.000Z</time>
      </trkpt>
      <trkpt lat="47.919932" lon="-120.195143">
        <ele>411.212187</ele>
        <time>2026-09-19T09:27:07.000Z</time>
      </trkpt>
      <trkpt lat="47.919822" lon="-120.195264">
        <ele>411.449142</ele>
        <time>2026-09-19T09:27:09.000Z</time>
      </trkpt>
      <trkpt lat="47.919649" lon="-120.195516">
        <ele>411.842043</ele>
        <time>2026-09-19T09:27:12.000Z</time>
      </trkpt>
      <trkpt lat="47.919191" lon="-120.196224">
        <ele>412.949905</ele>
        <time>2026-09-19T09:27:19.000Z</time>
      </trkpt>
      <trkpt lat="47.918994" lon="-120.196455">
        <ele>413.569912</ele>
        <time>2026-09-19T09:27:22.000Z</time>
      </trkpt>
      <trkpt lat="47.918018" lon="-120.197409">
        <ele>416.389285</ele>
        <time>2026-09-19T09:27:35.000Z</time>
      </trkpt>
      <trkpt lat="47.917714" lon="-120.197567">
        <ele>417.171188</ele>
        <time>2026-09-19T09:27:39.000Z</time>
      </trkpt>
      <trkpt lat="47.917329" lon="-120.197609">
        <ele>418.744122</ele>
        <time>2026-09-19T09:27:43.000Z</time>
      </trkpt>
      <trkpt lat="47.917042" lon="-120.197532">
        <ele>420.061599</ele>
        <time>2026-09-19T09:27:46.000Z</time>
      </trkpt>
      <trkpt lat="47.916839" lon="-120.197439">
        <ele>420.928238</ele>
        <time>2026-09-19T09:27:48.000Z</time>
      </trkpt>
      <trkpt lat="47.916227" lon="-120.197076">
        <ele>423.752018</ele>
        <time>2026-09-19T09:27:55.000Z</time>
      </trkpt>
      <trkpt lat="47.91559" lon="-120.196669">
        <ele>425.776235</ele>
        <time>2026-09-19T09:28:03.000Z</time>
      </trkpt>
      <trkpt lat="47.915292" lon="-120.1964">
        <ele>426.444398</ele>
        <time>2026-09-19T09:28:07.000Z</time>
      </trkpt>
      <trkpt lat="47.914445" lon="-120.195818">
        <ele>428.206333</ele>
        <time>2026-09-19T09:28:17.000Z</time>
      </trkpt>
      <trkpt lat="47.909982" lon="-120.193327">
        <ele>430.637772</ele>
        <time>2026-09-19T09:29:10.000Z</time>
      </trkpt>
      <trkpt lat="47.909862" lon="-120.193268">
        <ele>430.804838</ele>
        <time>2026-09-19T09:29:11.000Z</time>
      </trkpt>
      <trkpt lat="47.907519" lon="-120.19195">
        <ele>436.648802</ele>
        <time>2026-09-19T09:29:39.000Z</time>
      </trkpt>
      <trkpt lat="47.906084" lon="-120.190826">
        <ele>439.358963</ele>
        <time>2026-09-19T09:29:57.000Z</time>
      </trkpt>
      <trkpt lat="47.904885" lon="-120.189469">
        <ele>441.334221</ele>
        <time>2026-09-19T09:30:14.000Z</time>
      </trkpt>
      <trkpt lat="47.904339" lon="-120.188985">
        <ele>442.028975</ele>
        <time>2026-09-19T09:30:21.000Z</time>
      </trkpt>
      <trkpt lat="47.903951" lon="-120.188747">
        <ele>442.355612</ele>
        <time>2026-09-19T09:30:26.000Z</time>
      </trkpt>
      <trkpt lat="47.903766" lon="-120.188664">
        <ele>442.506823</ele>
        <time>2026-09-19T09:30:28.000Z</time>
      </trkpt>
      <trkpt lat="47.902654" lon="-120.188208">
        <ele>441.87367</ele>
        <time>2026-09-19T09:30:41.000Z</time>
      </trkpt>
      <trkpt lat="47.901881" lon="-120.18804">
        <ele>437.132489</ele>
        <time>2026-09-19T09:30:50.000Z</time>
      </trkpt>
      <trkpt lat="47.90119" lon="-120.187981">
        <ele>432.906148</ele>
        <time>2026-09-19T09:30:58.000Z</time>
      </trkpt>
      <trkpt lat="47.901195" lon="-120.187977">
        <ele>432.887828</ele>
        <time>2026-09-19T09:30:58.000Z</time>
      </trkpt>
      <trkpt lat="47.900882" lon="-120.187898">
        <ele>429.766863</ele>
        <time>2026-09-19T09:31:02.000Z</time>
      </trkpt>
      <trkpt lat="47.900467" lon="-120.188019">
        <ele>424.810275</ele>
        <time>2026-09-19T09:31:07.000Z</time>
      </trkpt>
      <trkpt lat="47.900353" lon="-120.188047">
        <ele>423.468847</ele>
        <time>2026-09-19T09:31:08.000Z</time>
      </trkpt>
      <trkpt lat="47.899606" lon="-120.187976">
        <ele>414.56743</ele>
        <time>2026-09-19T09:31:16.000Z</time>
      </trkpt>
      <trkpt lat="47.899112" lon="-120.18793">
        <ele>409.935884</ele>
        <time>2026-09-19T09:31:22.000Z</time>
      </trkpt>
      <trkpt lat="47.898466" lon="-120.187911">
        <ele>405.967127</ele>
        <time>2026-09-19T09:31:29.000Z</time>
      </trkpt>
      <trkpt lat="47.898354" lon="-120.187619">
        <ele>404.658487</ele>
        <time>2026-09-19T09:31:32.000Z</time>
      </trkpt>
      <trkpt lat="47.898304" lon="-120.187353">
        <ele>403.56234</ele>
        <time>2026-09-19T09:31:34.000Z</time>
      </trkpt>
      <trkpt lat="47.898327" lon="-120.187036">
        <ele>402.268486</ele>
        <time>2026-09-19T09:31:36.000Z</time>
      </trkpt>
      <trkpt lat="47.898561" lon="-120.18621">
        <ele>399.686399</ele>
        <time>2026-09-19T09:31:43.000Z</time>
      </trkpt>
      <trkpt lat="47.898757" lon="-120.185457">
        <ele>398.668286</ele>
        <time>2026-09-19T09:31:49.000Z</time>
      </trkpt>
      <trkpt lat="47.898882" lon="-120.185355">
        <ele>398.391614</ele>
        <time>2026-09-19T09:31:51.000Z</time>
      </trkpt>
      <trkpt lat="47.900441" lon="-120.183887">
        <ele>396.314007</ele>
        <time>2026-09-19T09:32:12.000Z</time>
      </trkpt>
      <trkpt lat="47.900533" lon="-120.183029">
        <ele>396.041935</ele>
        <time>2026-09-19T09:32:18.000Z</time>
      </trkpt>
      <trkpt lat="47.900363" lon="-120.181989">
        <ele>396.485303</ele>
        <time>2026-09-19T09:32:26.000Z</time>
      </trkpt>
      <trkpt lat="47.90017" lon="-120.181599">
        <ele>396.860841</ele>
        <time>2026-09-19T09:32:30.000Z</time>
      </trkpt>
      <trkpt lat="47.899815" lon="-120.181078">
        <ele>397.425328</ele>
        <time>2026-09-19T09:32:36.000Z</time>
      </trkpt>
      <trkpt lat="47.897424" lon="-120.177583">
        <ele>401.407673</ele>
        <time>2026-09-19T09:33:13.000Z</time>
      </trkpt>
      <trkpt lat="47.897111" lon="-120.177027">
        <ele>401.859198</ele>
        <time>2026-09-19T09:33:18.000Z</time>
      </trkpt>
      <trkpt lat="47.897037" lon="-120.176899">
        <ele>401.950338</ele>
        <time>2026-09-19T09:33:19.000Z</time>
      </trkpt>
      <trkpt lat="47.89642" lon="-120.175215">
        <ele>400.940362</ele>
        <time>2026-09-19T09:33:33.000Z</time>
      </trkpt>
      <trkpt lat="47.896366" lon="-120.175049">
        <ele>400.811294</ele>
        <time>2026-09-19T09:33:34.000Z</time>
      </trkpt>
      <trkpt lat="47.895801" lon="-120.17267">
        <ele>397.609811</ele>
        <time>2026-09-19T09:33:53.000Z</time>
      </trkpt>
      <trkpt lat="47.895629" lon="-120.172122">
        <ele>396.673212</ele>
        <time>2026-09-19T09:33:58.000Z</time>
      </trkpt>
      <trkpt lat="47.895405" lon="-120.171547">
        <ele>395.806973</ele>
        <time>2026-09-19T09:34:03.000Z</time>
      </trkpt>
      <trkpt lat="47.894595" lon="-120.169817">
        <ele>393.661952</ele>
        <time>2026-09-19T09:34:19.000Z</time>
      </trkpt>
      <trkpt lat="47.89439" lon="-120.169477">
        <ele>393.103244</ele>
        <time>2026-09-19T09:34:22.000Z</time>
      </trkpt>
      <trkpt lat="47.894264" lon="-120.169318">
        <ele>392.785187</ele>
        <time>2026-09-19T09:34:24.000Z</time>
      </trkpt>
      <trkpt lat="47.893995" lon="-120.169084">
        <ele>392.137588</ele>
        <time>2026-09-19T09:34:27.000Z</time>
      </trkpt>
      <trkpt lat="47.893429" lon="-120.168712">
        <ele>390.881161</ele>
        <time>2026-09-19T09:34:34.000Z</time>
      </trkpt>
      <trkpt lat="47.893077" lon="-120.168502">
        <ele>390.102509</ele>
        <time>2026-09-19T09:34:38.000Z</time>
      </trkpt>
      <trkpt lat="47.8918" lon="-120.16789">
        <ele>386.521181</ele>
        <time>2026-09-19T09:34:53.000Z</time>
      </trkpt>
      <trkpt lat="47.891536" lon="-120.167797">
        <ele>385.810803</ele>
        <time>2026-09-19T09:34:56.000Z</time>
      </trkpt>
      <trkpt lat="47.891278" lon="-120.167725">
        <ele>385.087506</ele>
        <time>2026-09-19T09:34:59.000Z</time>
      </trkpt>
      <trkpt lat="47.891137" lon="-120.1677">
        <ele>384.563335</ele>
        <time>2026-09-19T09:35:01.000Z</time>
      </trkpt>
      <trkpt lat="47.890557" lon="-120.167791">
        <ele>381.366839</ele>
        <time>2026-09-19T09:35:07.000Z</time>
      </trkpt>
      <trkpt lat="47.890126" lon="-120.167947">
        <ele>378.890052</ele>
        <time>2026-09-19T09:35:12.000Z</time>
      </trkpt>
      <trkpt lat="47.88956" lon="-120.168211">
        <ele>375.568028</ele>
        <time>2026-09-19T09:35:19.000Z</time>
      </trkpt>
      <trkpt lat="47.888495" lon="-120.16872">
        <ele>366.652805</ele>
        <time>2026-09-19T09:35:31.000Z</time>
      </trkpt>
      <trkpt lat="47.888259" lon="-120.168822">
        <ele>364.599621</ele>
        <time>2026-09-19T09:35:34.000Z</time>
      </trkpt>
      <trkpt lat="47.887755" lon="-120.169044">
        <ele>360.277674</ele>
        <time>2026-09-19T09:35:40.000Z</time>
      </trkpt>
      <trkpt lat="47.887289" lon="-120.169264">
        <ele>355.537069</ele>
        <time>2026-09-19T09:35:45.000Z</time>
      </trkpt>
      <trkpt lat="47.886922" lon="-120.169475">
        <ele>351.596207</ele>
        <time>2026-09-19T09:35:49.000Z</time>
      </trkpt>
      <trkpt lat="47.886646" lon="-120.16955">
        <ele>348.833181</ele>
        <time>2026-09-19T09:35:52.000Z</time>
      </trkpt>
      <trkpt lat="47.886328" lon="-120.16942">
        <ele>345.607329</ele>
        <time>2026-09-19T09:35:56.000Z</time>
      </trkpt>
      <trkpt lat="47.88609" lon="-120.169213">
        <ele>342.841197</ele>
        <time>2026-09-19T09:35:59.000Z</time>
      </trkpt>
      <trkpt lat="47.885889" lon="-120.168928">
        <ele>341.340249</ele>
        <time>2026-09-19T09:36:02.000Z</time>
      </trkpt>
      <trkpt lat="47.885697" lon="-120.16854">
        <ele>340.26098</ele>
        <time>2026-09-19T09:36:06.000Z</time>
      </trkpt>
      <trkpt lat="47.885594" lon="-120.168174">
        <ele>339.375146</ele>
        <time>2026-09-19T09:36:09.000Z</time>
      </trkpt>
      <trkpt lat="47.885558" lon="-120.167848">
        <ele>338.64921</ele>
        <time>2026-09-19T09:36:11.000Z</time>
      </trkpt>
      <trkpt lat="47.885589" lon="-120.167643">
        <ele>338.191243</ele>
        <time>2026-09-19T09:36:13.000Z</time>
      </trkpt>
      <trkpt lat="47.885695" lon="-120.167249">
        <ele>337.279623</ele>
        <time>2026-09-19T09:36:16.000Z</time>
      </trkpt>
      <trkpt lat="47.886194" lon="-120.165782">
        <ele>335.809502</ele>
        <time>2026-09-19T09:36:28.000Z</time>
      </trkpt>
      <trkpt lat="47.886252" lon="-120.165457">
        <ele>335.737175</ele>
        <time>2026-09-19T09:36:31.000Z</time>
      </trkpt>
      <trkpt lat="47.886299" lon="-120.165118">
        <ele>335.661642</ele>
        <time>2026-09-19T09:36:34.000Z</time>
      </trkpt>
      <trkpt lat="47.88632" lon="-120.16484">
        <ele>335.600428</ele>
        <time>2026-09-19T09:36:36.000Z</time>
      </trkpt>
      <trkpt lat="47.886275" lon="-120.164414">
        <ele>335.504638</ele>
        <time>2026-09-19T09:36:39.000Z</time>
      </trkpt>
      <trkpt lat="47.885897" lon="-120.162641">
        <ele>336.705863</ele>
        <time>2026-09-19T09:36:53.000Z</time>
      </trkpt>
      <trkpt lat="47.885687" lon="-120.161678">
        <ele>337.460068</ele>
        <time>2026-09-19T09:37:01.000Z</time>
      </trkpt>
      <trkpt lat="47.88557" lon="-120.161134">
        <ele>338.873282</ele>
        <time>2026-09-19T09:37:05.000Z</time>
      </trkpt>
      <trkpt lat="47.885443" lon="-120.160534">
        <ele>340.460572</ele>
        <time>2026-09-19T09:37:10.000Z</time>
      </trkpt>
      <trkpt lat="47.885242" lon="-120.159541">
        <ele>343.044259</ele>
        <time>2026-09-19T09:37:18.000Z</time>
      </trkpt>
      <trkpt lat="47.885073" lon="-120.1588">
        <ele>344.728413</ele>
        <time>2026-09-19T09:37:24.000Z</time>
      </trkpt>
      <trkpt lat="47.884629" lon="-120.156718">
        <ele>348.516519</ele>
        <time>2026-09-19T09:37:40.000Z</time>
      </trkpt>
      <trkpt lat="47.884524" lon="-120.156192">
        <ele>349.006122</ele>
        <time>2026-09-19T09:37:44.000Z</time>
      </trkpt>
      <trkpt lat="47.884455" lon="-120.15588">
        <ele>349.19113</ele>
        <time>2026-09-19T09:37:46.000Z</time>
      </trkpt>
      <trkpt lat="47.884263" lon="-120.155033">
        <ele>349.682662</ele>
        <time>2026-09-19T09:37:53.000Z</time>
      </trkpt>
      <trkpt lat="47.884204" lon="-120.154754">
        <ele>349.847839</ele>
        <time>2026-09-19T09:37:55.000Z</time>
      </trkpt>
      <trkpt lat="47.884031" lon="-120.153947">
        <ele>350.251599</ele>
        <time>2026-09-19T09:38:01.000Z</time>
      </trkpt>
      <trkpt lat="47.883791" lon="-120.152824">
        <ele>349.692053</ele>
        <time>2026-09-19T09:38:10.000Z</time>
      </trkpt>
      <trkpt lat="47.883643" lon="-120.152125">
        <ele>349.34131</ele>
        <time>2026-09-19T09:38:15.000Z</time>
      </trkpt>
      <trkpt lat="47.883559" lon="-120.151771">
        <ele>349.163463</ele>
        <time>2026-09-19T09:38:18.000Z</time>
      </trkpt>
      <trkpt lat="47.883417" lon="-120.151196">
        <ele>348.95036</ele>
        <time>2026-09-19T09:38:23.000Z</time>
      </trkpt>
      <trkpt lat="47.883405" lon="-120.15111">
        <ele>348.930629</ele>
        <time>2026-09-19T09:38:24.000Z</time>
      </trkpt>
      <trkpt lat="47.883123" lon="-120.149712">
        <ele>348.615235</ele>
        <time>2026-09-19T09:38:35.000Z</time>
      </trkpt>
      <trkpt lat="47.882836" lon="-120.148349">
        <ele>348.1411</ele>
        <time>2026-09-19T09:38:46.000Z</time>
      </trkpt>
      <trkpt lat="47.882304" lon="-120.145926">
        <ele>346.710145</ele>
        <time>2026-09-19T09:39:05.000Z</time>
      </trkpt>
      <trkpt lat="47.882155" lon="-120.14527">
        <ele>346.114293</ele>
        <time>2026-09-19T09:39:10.000Z</time>
      </trkpt>
      <trkpt lat="47.881875" lon="-120.144009">
        <ele>344.975185</ele>
        <time>2026-09-19T09:39:20.000Z</time>
      </trkpt>
      <trkpt lat="47.881856" lon="-120.143846">
        <ele>344.840385</ele>
        <time>2026-09-19T09:39:21.000Z</time>
      </trkpt>
      <trkpt lat="47.881059" lon="-120.13997">
        <ele>340.59151</ele>
        <time>2026-09-19T09:39:51.000Z</time>
      </trkpt>
      <trkpt lat="47.88102" lon="-120.139626">
        <ele>340.350896</ele>
        <time>2026-09-19T09:39:54.000Z</time>
      </trkpt>
      <trkpt lat="47.881129" lon="-120.12958">
        <ele>340.516348371</ele>
        <time>2026-09-19T09:41:09.000Z</time>
      </trkpt>
      <trkpt lat="47.881158" lon="-120.12784">
        <ele>340.545010321</ele>
        <time>2026-09-19T09:41:22.000Z</time>
      </trkpt>
    </trkseg>
  </trk>
</gpx>

<!--
Performance optimized by W3 Total Cache. Learn more: https://www.boldgrid.com/w3-total-cache/?utm_source=w3tc&utm_medium=footer_comment&utm_campaign=free_plugin

Page Caching using Disk: Enhanced{w3tc_pagecache_reject_reason} 

Served from: www.aquabike.world @ 2026-05-02 18:12:33 by W3 Total Cache
-->